Time;durP1;ratioP1;P1;durP2;ratioP2;P2;SDS_P1;SDS_P2;PMS_P1;PMS_P2;Temp;Humidity;BMP_temperature;BMP_pressure;BME280_temperature;BME280_humidity;BME280_pressure;Samples;Min_cycle;Max_cycle;Signal;HPM_P1;HPM_P2
2022/06/08 00:00:03;;;;;;;7.93;4.60;;;11.30;99.90;;;;;;5073743;28;20360;-54
2022/06/08 00:02:32;;;;;;;10.32;3.72;;;11.40;99.90;;;;;;5073536;28;20098;-55
2022/06/08 00:04:58;;;;;;;8.65;4.05;;;11.30;99.90;;;;;;5073571;28;20091;-55
2022/06/08 00:07:24;;;;;;;14.82;4.78;;;11.30;99.90;;;;;;5073468;28;20040;-54
2022/06/08 00:09:50;;;;;;;9.38;4.20;;;11.30;99.90;;;;;;5073563;28;20048;-56
2022/06/08 00:12:15;;;;;;;11.05;4.57;;;11.30;99.90;;;;;;5073335;28;20038;-55
2022/06/08 00:14:41;;;;;;;13.90;4.80;;;11.30;99.90;;;;;;5072870;28;20079;-55
2022/06/08 00:17:07;;;;;;;8.60;4.47;;;11.40;99.90;;;;;;5071578;28;20098;-54
2022/06/08 00:19:33;;;;;;;9.73;4.72;;;11.20;99.90;;;;;;5073108;28;20045;-56
2022/06/08 00:21:59;;;;;;;10.75;4.32;;;11.20;99.90;;;;;;5072689;28;20056;-55
2022/06/08 00:24:25;;;;;;;10.73;4.60;;;11.20;99.90;;;;;;5072751;28;20459;-54
2022/06/08 00:26:50;;;;;;;11.20;4.57;;;11.20;99.90;;;;;;5072908;28;20052;-53
2022/06/08 00:29:16;;;;;;;9.93;4.65;;;11.20;99.90;;;;;;5072961;28;20060;-53
2022/06/08 00:31:42;;;;;;;11.02;4.82;;;11.30;99.90;;;;;;5073175;28;20395;-53
2022/06/08 00:34:08;;;;;;;7.32;4.35;;;11.20;99.90;;;;;;5072794;28;20180;-55
2022/06/08 00:36:33;;;;;;;10.98;4.93;;;11.20;99.90;;;;;;5072509;28;20044;-55
2022/06/08 00:38:59;;;;;;;8.55;4.50;;;11.20;99.90;;;;;;5070759;28;20044;-55
2022/06/08 00:41:33;;;;;;;11.27;5.00;;;11.30;99.90;;;;;;5072327;28;20170;-53
2022/06/08 00:44:01;;;;;;;10.70;4.78;;;11.30;99.90;;;;;;5072766;28;20048;-53
2022/06/08 00:46:27;;;;;;;11.43;5.38;;;11.20;99.90;;;;;;5072753;28;20115;-55
2022/06/08 00:49:02;;;;;;;10.57;5.35;;;11.20;99.90;;;;;;5072513;28;20506;-53
2022/06/08 00:51:29;;;;;;;10.05;4.82;;;11.20;99.90;;;;;;5058809;28;20048;-55
2022/06/08 00:54:01;;;;;;;7.95;5.25;;;11.10;99.90;;;;;;5072494;28;20037;-54
2022/06/08 00:56:31;;;;;;;6.57;4.95;;;11.10;99.90;;;;;;5071998;28;20040;-56
2022/06/08 00:58:59;;;;;;;12.35;4.95;;;11.10;99.90;;;;;;5072925;28;20048;-54
2022/06/08 01:01:24;;;;;;;10.90;4.43;;;11.00;99.90;;;;;;5072796;28;20040;-54
2022/06/08 01:04:03;;;;;;;6.18;4.35;;;11.10;99.90;;;;;;5071975;28;20052;-54
2022/06/08 01:06:29;;;;;;;9.57;5.10;;;11.10;99.90;;;;;;5054409;28;20078;-54
2022/06/08 01:08:54;;;;;;;10.45;5.80;;;11.10;99.90;;;;;;5072568;28;20044;-54
2022/06/08 01:11:38;;;;;;;11.93;6.30;;;11.00;99.90;;;;;;5054039;28;20397;-55
2022/06/08 01:14:10;;;;;;;14.10;6.20;;;11.00;99.90;;;;;;5054402;28;20516;-55
2022/06/08 01:16:36;;;;;;;11.25;5.05;;;10.90;99.90;;;;;;5071481;28;20053;-54
2022/06/08 01:19:03;;;;;;;8.07;5.43;;;11.00;99.90;;;;;;5072209;28;20476;-56
2022/06/08 01:21:29;;;;;;;9.32;5.80;;;10.90;99.90;;;;;;5071866;28;20044;-53
2022/06/08 01:24:03;;;;;;;10.30;5.78;;;11.00;99.90;;;;;;5070946;28;20098;-53
2022/06/08 01:26:54;;;;;;;7.65;4.90;;;10.90;99.90;;;;;;5054302;28;20075;-54
2022/06/08 01:29:26;;;;;;;;;;;10.90;99.90;;;;;;5072511;28;20045;-56
2022/06/08 01:32:02;;;;;;;6.47;4.75;;;10.90;99.90;;;;;;5072048;28;19923;-54
2022/06/08 01:34:55;;;;;;;8.85;4.97;;;10.90;99.90;;;;;;5071934;28;20048;-54
2022/06/08 01:37:26;;;;;;;8.15;5.25;;;10.80;99.90;;;;;;5071661;28;20047;-55
2022/06/08 01:40:30;;;;;;;9.02;5.60;;;10.90;99.90;;;;;;5072082;28;20047;-53
2022/06/08 01:43:16;;;;;;;8.50;5.32;;;10.90;99.90;;;;;;5071888;28;20047;-56
2022/06/08 01:45:48;;;;;;;9.77;5.28;;;10.90;99.90;;;;;;5071804;28;20048;-55
2022/06/08 01:48:23;;;;;;;8.50;5.07;;;10.90;99.90;;;;;;5071962;28;20391;-52
2022/06/08 01:51:03;;;;;;;11.55;6.00;;;10.90;99.90;;;;;;5071722;28;20127;-54
2022/06/08 01:53:49;;;;;;;7.40;5.75;;;10.80;99.90;;;;;;5071967;28;20080;-54
2022/06/08 01:56:58;;;;;;;9.23;5.70;;;10.90;99.90;;;;;;5071855;28;20041;-56
2022/06/08 01:59:50;;;;;;;13.02;5.43;;;10.90;99.90;;;;;;5071905;28;20425;-55
2022/06/08 02:02:30;;;;;;;9.93;6.47;;;10.90;99.90;;;;;;5071722;28;20063;-57
2022/06/08 02:05:10;;;;;;;8.82;6.07;;;10.80;99.90;;;;;;5072027;28;20135;-55
2022/06/08 02:08:01;;;;;;;8.82;5.20;;;10.90;99.90;;;;;;5053217;28;20059;-54
2022/06/08 02:10:36;;;;;;;13.15;5.65;;;10.80;99.90;;;;;;5053990;28;20102;-55
2022/06/08 02:13:11;;;;;;;11.55;6.10;;;10.80;99.90;;;;;;5071729;28;20075;-55
2022/06/08 02:15:43;;;;;;;7.70;5.97;;;10.80;99.90;;;;;;5071534;28;20044;-55
2022/06/08 02:18:27;;;;;;;10.55;6.10;;;10.80;99.90;;;;;;5071730;28;20048;-53
2022/06/08 02:21:07;;;;;;;19.27;7.50;;;10.70;99.90;;;;;;5071515;28;20131;-55
2022/06/08 02:23:41;;;;;;;11.40;6.18;;;10.60;99.90;;;;;;5071509;28;20041;-55
2022/06/08 02:26:14;;;;;;;7.85;5.82;;;10.60;99.90;;;;;;5072078;28;20055;-55
2022/06/08 02:28:48;;;;;;;9.23;6.22;;;10.60;99.90;;;;;;5071991;28;20139;-55
2022/06/08 02:31:25;;;;;;;11.55;6.90;;;10.60;99.90;;;;;;5074967;28;20123;-55
2022/06/08 02:36:49;;;;;;;10.00;6.13;;;10.60;99.90;;;;;;5074972;28;20052;-54
2022/06/08 02:39:20;;;;;;;16.02;7.10;;;10.70;99.90;;;;;;5074949;28;20094;-54
2022/06/08 02:41:49;;;;;;;9.65;6.57;;;10.70;99.90;;;;;;5074624;28;20102;-55
2022/06/08 02:44:26;;;;;;;11.32;6.15;;;10.70;99.90;;;;;;5075035;28;20119;-55
2022/06/08 02:47:04;;;;;;;13.65;7.40;;;10.70;99.90;;;;;;5074950;28;20080;-54
2022/06/08 02:49:34;;;;;;;14.13;6.53;;;10.70;99.90;;;;;;5060936;28;20394;-55
2022/06/08 02:52:06;;;;;;;10.60;7.13;;;10.70;99.90;;;;;;5074698;28;20091;-55
2022/06/08 02:54:32;;;;;;;11.57;6.05;;;10.80;99.90;;;;;;5074734;28;20043;-54
2022/06/08 02:57:05;;;;;;;12.18;7.22;;;10.70;99.90;;;;;;5074900;28;20044;-55
2022/06/08 02:59:36;;;;;;;12.55;7.63;;;10.70;99.90;;;;;;5074161;28;20120;-54
2022/06/08 03:02:24;;;;;;;11.27;7.10;;;10.70;99.90;;;;;;5074533;28;20486;-54
2022/06/08 03:04:54;;;;;;;11.60;7.55;;;10.70;99.90;;;;;;5074658;28;20079;-54
2022/06/08 03:07:31;;;;;;;12.68;7.57;;;10.70;99.90;;;;;;5074373;28;20491;-55
2022/06/08 03:10:01;;;;;;;13.07;8.18;;;10.80;99.90;;;;;;5060931;28;20041;-55
2022/06/08 03:12:34;;;;;;;11.23;7.70;;;10.70;99.90;;;;;;5074272;28;20124;-56
2022/06/08 03:15:01;;;;;;;13.02;8.27;;;10.70;99.90;;;;;;5060314;28;20037;-53
2022/06/08 03:17:32;;;;;;;10.63;8.30;;;10.70;99.90;;;;;;5074305;28;20076;-54
2022/06/08 03:19:58;;;;;;;13.55;8.57;;;10.70;99.90;;;;;;5073959;28;20479;-54
2022/06/08 03:22:24;;;;;;;19.40;9.63;;;10.70;99.90;;;;;;5074201;28;20376;-52
2022/06/08 03:24:49;;;;;;;14.75;9.63;;;10.70;99.90;;;;;;5073755;28;20048;-53
2022/06/08 03:27:15;;;;;;;12.57;8.77;;;10.70;99.90;;;;;;5074035;28;20040;-54
2022/06/08 03:29:41;;;;;;;16.40;9.63;;;10.60;99.90;;;;;;5073602;28;20091;-55
2022/06/08 03:32:07;;;;;;;14.05;9.15;;;10.60;99.90;;;;;;5074004;28;20041;-53
2022/06/08 03:34:32;;;;;;;14.85;9.50;;;10.70;99.90;;;;;;5073956;28;20078;-54
2022/06/08 03:36:58;;;;;;;15.10;8.40;;;10.70;99.90;;;;;;5073713;28;20044;-54
2022/06/08 03:39:24;;;;;;;15.77;8.93;;;10.70;99.90;;;;;;5073612;28;20130;-55
2022/06/08 03:41:49;;;;;;;18.63;10.82;;;10.70;99.90;;;;;;5073863;28;20051;-52
2022/06/08 03:44:15;;;;;;;18.45;10.93;;;10.80;99.90;;;;;;5073466;28;20048;-53
2022/06/08 03:46:47;;;;;;;19.63;11.40;;;10.80;99.90;;;;;;5071808;28;20441;-53
2022/06/08 03:49:13;;;;;;;18.92;12.60;;;10.80;99.90;;;;;;5073234;28;20050;-54
2022/06/08 03:51:42;;;;;;;16.63;11.15;;;10.80;99.90;;;;;;5055834;28;20040;-54
2022/06/08 03:54:18;;;;;;;19.83;11.68;;;10.90;99.90;;;;;;5073113;28;20036;-54
2022/06/08 03:56:50;;;;;;;19.85;12.93;;;10.90;99.90;;;;;;5073405;28;20115;-54
2022/06/08 03:59:16;;;;;;;18.50;11.85;;;10.90;99.90;;;;;;5060884;28;20044;-55
2022/06/08 04:01:43;;;;;;;17.90;12.98;;;10.90;99.90;;;;;;5055403;28;20395;-54
2022/06/08 04:04:09;;;;;;;22.70;12.80;;;11.00;99.90;;;;;;5073550;28;20131;-55
2022/06/08 04:06:34;;;;;;;18.00;11.75;;;11.00;99.90;;;;;;5073166;28;20577;-55
2022/06/08 04:09:00;;;;;;;17.90;12.27;;;11.00;99.90;;;;;;5072794;28;20406;-54
2022/06/08 04:11:26;;;;;;;17.10;11.82;;;11.00;99.90;;;;;;5072887;28;20044;-55
2022/06/08 04:13:52;;;;;;;18.80;11.98;;;11.10;99.90;;;;;;5073458;28;20040;-54
2022/06/08 04:16:17;;;;;;;15.43;12.00;;;11.10;99.90;;;;;;5072750;28;20110;-54
2022/06/08 04:18:43;;;;;;;18.60;11.93;;;11.10;99.90;;;;;;5072818;28;20075;-53
2022/06/08 04:21:11;;;;;;;18.25;11.60;;;11.20;99.90;;;;;;5072587;28;20045;-55
2022/06/08 04:23:38;;;;;;;14.93;11.35;;;11.30;99.90;;;;;;5072490;28;20077;-54
2022/06/08 04:26:05;;;;;;;20.45;12.18;;;11.30;99.90;;;;;;5072644;28;20495;-54
2022/06/08 04:28:32;;;;;;;16.10;11.23;;;11.40;99.90;;;;;;5072625;28;20044;-56
2022/06/08 04:30:58;;;;;;;18.25;11.57;;;11.50;99.90;;;;;;5072758;28;20147;-55
2022/06/08 04:33:23;;;;;;;16.80;11.63;;;11.60;99.90;;;;;;5072844;28;20120;-54
2022/06/08 04:35:51;;;;;;;20.55;12.23;;;11.70;99.90;;;;;;5072506;28;20402;-55
2022/06/08 04:38:17;;;;;;;20.10;12.38;;;11.80;99.90;;;;;;5072811;28;20048;-56
2022/06/08 04:40:44;;;;;;;18.13;12.45;;;12.10;99.90;;;;;;5072528;28;20052;-55
2022/06/08 04:43:09;;;;;;;17.13;12.70;;;12.10;99.90;;;;;;5072341;28;20087;-54
2022/06/08 04:45:37;;;;;;;17.92;12.32;;;12.30;99.90;;;;;;5072159;28;20080;-54
2022/06/08 04:48:03;;;;;;;16.15;12.65;;;12.40;99.90;;;;;;5072464;28;20051;-54
2022/06/08 04:50:29;;;;;;;21.20;13.68;;;12.50;99.90;;;;;;5072145;28;20440;-55
2022/06/08 04:52:55;;;;;;;17.38;13.30;;;12.50;99.90;;;;;;5071486;28;20124;-55
2022/06/08 04:55:22;;;;;;;20.63;12.95;;;12.50;99.90;;;;;;5072477;28;20171;-53
2022/06/08 04:57:48;;;;;;;20.90;14.82;;;12.50;99.90;;;;;;5072243;28;20037;-54
2022/06/08 05:00:21;;;;;;;17.35;13.65;;;12.60;99.90;;;;;;5071987;28;20044;-54
2022/06/08 05:02:48;;;;;;;22.75;14.15;;;12.60;99.90;;;;;;5071986;28;20482;-55
2022/06/08 05:05:23;;;;;;;22.35;15.15;;;12.70;99.90;;;;;;5072365;28;20081;-55
2022/06/08 05:07:49;;;;;;;19.98;15.05;;;12.70;99.90;;;;;;5072167;28;20051;-53
2022/06/08 05:10:16;;;;;;;22.30;15.32;;;12.70;99.90;;;;;;5072341;28;20045;-55
2022/06/08 05:12:42;;;;;;;21.25;15.20;;;12.70;99.90;;;;;;5071500;28;20079;-55
2022/06/08 05:15:13;;;;;;;20.80;15.52;;;12.70;99.90;;;;;;5071969;28;20036;-53
2022/06/08 05:17:39;;;;;;;25.45;15.65;;;12.70;99.90;;;;;;5071961;28;20044;-55
2022/06/08 05:20:06;;;;;;;24.15;16.40;;;12.80;99.90;;;;;;5072102;28;20561;-55
2022/06/08 05:22:32;;;;;;;23.75;15.57;;;12.80;99.90;;;;;;5072223;28;20053;-55
2022/06/08 05:24:58;;;;;;;20.35;15.23;;;12.80;99.90;;;;;;5072255;28;20039;-57
2022/06/08 05:27:23;;;;;;;22.20;15.27;;;12.80;99.90;;;;;;5072103;28;20475;-56
2022/06/08 05:29:49;;;;;;;23.90;17.48;;;12.80;99.90;;;;;;5071540;28;20055;-55
2022/06/08 05:32:15;;;;;;;26.20;17.65;;;12.90;99.90;;;;;;5071774;28;20032;-55
2022/06/08 05:34:40;;;;;;;25.95;17.13;;;12.90;99.90;;;;;;5071694;28;20534;-54
2022/06/08 05:37:06;;;;;;;23.98;16.65;;;13.00;99.90;;;;;;5071903;28;20040;-55
2022/06/08 05:39:32;;;;;;;23.50;16.85;;;13.10;99.90;;;;;;5071407;28;20402;-55
2022/06/08 05:41:57;;;;;;;30.42;18.23;;;13.00;99.90;;;;;;5071913;28;20074;-55
2022/06/08 05:44:23;;;;;;;24.88;18.38;;;13.20;99.90;;;;;;5053406;28;20037;-55
2022/06/08 05:46:50;;;;;;;26.13;19.63;;;13.20;99.90;;;;;;5071481;28;20550;-54
2022/06/08 05:49:17;;;;;;;31.75;19.35;;;13.20;99.90;;;;;;5071262;28;20442;-55
2022/06/08 05:51:44;;;;;;;25.98;18.67;;;13.30;99.90;;;;;;5071756;28;20047;-55
2022/06/08 05:54:10;;;;;;;57.97;51.65;;;13.40;99.90;;;;;;5071238;28;20479;-55
2022/06/08 05:56:36;;;;;;;105.70;93.47;;;13.40;99.90;;;;;;5071778;28;20395;-54
2022/06/08 05:59:03;;;;;;;30.70;23.55;;;13.50;99.90;;;;;;5053745;28;20052;-55
2022/06/08 06:01:30;;;;;;;26.13;17.88;;;13.50;99.90;;;;;;5071360;28;20441;-55
2022/06/08 06:03:56;;;;;;;24.52;17.73;;;13.60;99.90;;;;;;5074251;28;20044;-55
2022/06/08 06:06:22;;;;;;;24.15;18.77;;;13.60;99.90;;;;;;5075170;28;20082;-55
2022/06/08 06:08:47;;;;;;;25.83;17.95;;;13.80;99.90;;;;;;5075314;28;20076;-54
2022/06/08 06:11:13;;;;;;;21.83;17.83;;;13.90;99.90;;;;;;5075154;28;20379;-55
2022/06/08 06:13:40;;;;;;;23.17;16.73;;;13.90;99.90;;;;;;5075513;28;20508;-55
2022/06/08 06:16:06;;;;;;;26.20;18.25;;;14.10;99.90;;;;;;5075198;28;20053;-56
2022/06/08 06:18:32;;;;;;;29.40;16.23;;;14.20;99.90;;;;;;5075484;28;20463;-55
2022/06/08 06:20:58;;;;;;;22.88;17.20;;;14.10;99.90;;;;;;5075848;28;20055;-56
2022/06/08 06:23:25;;;;;;;27.83;17.17;;;14.30;99.90;;;;;;5075367;28;20044;-55
2022/06/08 06:25:52;;;;;;;22.27;17.50;;;14.40;99.90;;;;;;5075087;28;20056;-54
2022/06/08 06:28:17;;;;;;;22.23;16.38;;;14.50;99.90;;;;;;5074791;28;20175;-55
2022/06/08 06:30:43;;;;;;;19.50;16.42;;;14.60;99.90;;;;;;5075274;28;20127;-55
2022/06/08 06:33:11;;;;;;;23.85;16.70;;;14.80;99.90;;;;;;5075130;28;20141;-54
2022/06/08 06:35:37;;;;;;;23.05;16.05;;;14.90;99.90;;;;;;5075150;28;20047;-54
2022/06/08 06:38:03;;;;;;;22.88;17.13;;;15.10;99.90;;;;;;5075064;28;20044;-55
2022/06/08 06:40:29;;;;;;;23.13;16.40;;;15.20;99.90;;;;;;5075023;28;20068;-54
2022/06/08 06:42:55;;;;;;;20.27;16.27;;;15.30;99.90;;;;;;5074788;28;20504;-55
2022/06/08 06:45:21;;;;;;;23.85;15.60;;;15.40;99.90;;;;;;5074920;28;20052;-55
2022/06/08 06:47:46;;;;;;;17.95;14.55;;;15.50;99.90;;;;;;5075017;28;20056;-54
2022/06/08 06:50:15;;;;;;;20.35;15.98;;;15.60;99.90;;;;;;5075147;28;20589;-55
2022/06/08 06:52:41;;;;;;;18.20;15.80;;;15.70;99.90;;;;;;5074583;28;20147;-54
2022/06/08 06:55:07;;;;;;;19.20;14.98;;;15.70;99.90;;;;;;5074719;28;20071;-55
2022/06/08 06:57:32;;;;;;;18.20;15.40;;;15.90;99.90;;;;;;5074639;28;20040;-54
2022/06/08 06:59:58;;;;;;;22.05;14.57;;;16.10;99.90;;;;;;5074519;28;20056;-55
2022/06/08 07:02:23;;;;;;;17.67;14.60;;;16.20;99.90;;;;;;5074614;28;20106;-55
2022/06/08 07:04:50;;;;;;;20.45;15.32;;;16.30;99.90;;;;;;5074526;28;20083;-55
2022/06/08 07:07:16;;;;;;;20.15;15.82;;;16.30;99.90;;;;;;5074776;28;20049;-55
2022/06/08 07:09:42;;;;;;;15.88;13.02;;;16.30;99.90;;;;;;5074249;28;20447;-54
2022/06/08 07:12:10;;;;;;;17.00;13.52;;;16.30;99.90;;;;;;5074289;28;20097;-56
2022/06/08 07:14:36;;;;;;;19.85;15.18;;;16.40;99.90;;;;;;5073414;28;20044;-53
2022/06/08 07:17:02;;;;;;;16.77;12.93;;;16.40;99.90;;;;;;5073979;28;20060;-54
2022/06/08 07:19:28;;;;;;;15.13;12.27;;;16.40;99.90;;;;;;5074189;28;20106;-55
2022/06/08 07:21:53;;;;;;;25.90;16.25;;;16.60;99.90;;;;;;5074237;28;20044;-55
2022/06/08 07:24:30;;;;;;;14.32;11.40;;;17.00;99.90;;;;;;5074385;28;20152;-54
2022/06/08 07:26:56;;;;;;;13.20;11.10;;;17.30;99.90;;;;;;5073903;28;20059;-55
2022/06/08 07:29:22;;;;;;;14.20;10.20;;;17.80;99.90;;;;;;5074106;28;20048;-54
2022/06/08 07:31:47;;;;;;;13.93;10.52;;;18.10;99.90;;;;;;5074303;28;20040;-55
2022/06/08 07:34:14;;;;;;;14.65;9.48;;;18.30;99.90;;;;;;5073989;28;20080;-55
2022/06/08 07:36:41;;;;;;;17.40;11.32;;;18.20;99.90;;;;;;5074036;28;20080;-54
2022/06/08 07:39:07;;;;;;;14.93;9.70;;;18.20;99.90;;;;;;5074138;28;20483;-54
2022/06/08 07:41:33;;;;;;;9.57;7.88;;;18.10;99.90;;;;;;5073474;28;20048;-55
2022/06/08 07:43:59;;;;;;;10.05;8.35;;;18.00;99.90;;;;;;5074041;28;20376;-53
2022/06/08 07:46:25;;;;;;;10.60;7.47;;;17.90;99.90;;;;;;5073949;28;20387;-55
2022/06/08 07:51:35;;;;;;;13.23;7.07;;;17.90;99.90;;;;;;5073589;28;20151;-55
2022/06/08 07:54:01;;;;;;;10.77;8.48;;;17.90;99.90;;;;;;5055063;28;20490;-54
2022/06/08 07:56:29;;;;;;;15.02;9.60;;;18.00;99.90;;;;;;5073785;28;20040;-54
2022/06/08 07:58:55;;;;;;;21.67;13.05;;;18.00;99.90;;;;;;5073558;28;20044;-55
2022/06/08 08:01:20;;;;;;;14.55;8.65;;;18.00;99.90;;;;;;5071641;28;20047;-54
2022/06/08 08:03:46;;;;;;;13.52;7.68;;;18.00;99.90;;;;;;5073656;28;20114;-54
2022/06/08 08:06:12;;;;;;;8.68;6.03;;;18.10;99.90;;;;;;5073074;28;20036;-54
2022/06/08 08:08:38;;;;;;;7.45;5.95;;;18.10;99.90;;;;;;5073102;28;20132;-55
2022/06/08 08:11:05;;;;;;;7.03;5.70;;;18.20;99.90;;;;;;5073096;28;20052;-53
2022/06/08 08:13:30;;;;;;;6.45;5.57;;;18.10;99.90;;;;;;5073519;28;20036;-54
2022/06/08 08:15:56;;;;;;;9.38;5.32;;;18.20;99.90;;;;;;5073194;28;20399;-54
2022/06/08 08:18:21;;;;;;;7.75;5.40;;;18.30;99.90;;;;;;5073200;28;20482;-54
2022/06/08 08:20:47;;;;;;;7.40;4.82;;;18.40;99.90;;;;;;5073287;28;20078;-56
2022/06/08 08:23:13;;;;;;;4.38;3.97;;;18.40;99.90;;;;;;5073107;28;20040;-53
2022/06/08 08:25:39;;;;;;;7.32;4.15;;;18.60;99.90;;;;;;5072943;28;20053;-53
2022/06/08 08:28:05;;;;;;;4.43;3.33;;;18.90;99.90;;;;;;5072324;28;20074;-55
2022/06/08 08:30:32;;;;;;;8.63;3.60;;;19.00;99.90;;;;;;5073069;28;20097;-52
2022/06/08 08:32:58;;;;;;;7.78;3.40;;;19.20;99.90;;;;;;5073056;28;20119;-54
2022/06/08 08:35:24;;;;;;;5.43;2.50;;;19.50;99.90;;;;;;5059027;28;20072;-54
2022/06/08 08:37:51;;;;;;;3.13;2.33;;;19.80;99.90;;;;;;5072869;28;20055;-53
2022/06/08 08:40:29;;;;;;;4.30;2.72;;;19.90;99.90;;;;;;5073006;28;20051;-54
2022/06/08 08:42:56;;;;;;;3.55;2.38;;;20.20;99.90;;;;;;5073034;28;20037;-54
2022/06/08 08:45:23;;;;;;;4.38;2.03;;;20.20;99.90;;;;;;5072416;28;20047;-55
2022/06/08 08:48:03;;;;;;;3.08;2.25;;;20.20;99.90;;;;;;5072607;28;20041;-54
2022/06/08 08:50:31;;;;;;;2.72;2.28;;;20.30;99.90;;;;;;5072213;28;20052;-54
2022/06/08 08:53:25;;;;;;;4.10;2.05;;;20.50;99.90;;;;;;5072787;28;20094;-55
2022/06/08 08:56:00;;;;;;;3.85;1.98;;;20.40;99.90;;;;;;5072175;28;20045;-55
2022/06/08 08:58:29;;;;;;;3.53;1.60;;;20.50;99.90;;;;;;5072276;28;20047;-55
2022/06/08 09:00:59;;;;;;;3.10;1.80;;;20.60;99.90;;;;;;5072298;28;20070;-53
2022/06/08 09:03:41;;;;;;;3.08;1.88;;;20.60;99.90;;;;;;5072190;28;20121;-54
2022/06/08 09:06:14;;;;;;;2.63;1.33;;;20.90;99.90;;;;;;5072226;28;20079;-54
2022/06/08 09:08:44;;;;;;;3.70;1.08;;;21.10;99.90;;;;;;5071916;28;20398;-55
2022/06/08 09:11:22;;;;;;;3.03;1.83;;;21.60;99.90;;;;;;5072152;28;20079;-54
2022/06/08 09:13:50;;;;;;;2.60;0.95;;;21.50;99.90;;;;;;5072030;28;20120;-54
2022/06/08 09:16:28;;;;;;;1.50;0.90;;;21.80;99.90;;;;;;5071756;28;20045;-55
2022/06/08 09:18:53;;;;;;;3.70;1.40;;;22.00;99.90;;;;;;5052453;28;20465;-55
2022/06/08 09:21:24;;;;;;;3.05;1.30;;;22.60;99.90;;;;;;5071957;28;20123;-55
2022/06/08 09:23:52;;;;;;;2.17;1.40;;;22.50;99.90;;;;;;5071811;28;20040;-54
2022/06/08 09:26:24;;;;;;;2.17;1.40;;;22.70;99.90;;;;;;5071799;28;20041;-55
2022/06/08 09:29:08;;;;;;;2.08;1.25;;;22.40;99.90;;;;;;5071735;28;20049;-55
2022/06/08 09:31:35;;;;;;;3.90;1.60;;;22.40;99.90;;;;;;5053620;28;20458;-55
2022/06/08 09:34:07;;;;;;;1.92;1.30;;;22.10;99.90;;;;;;5072215;28;20052;-54
2022/06/08 09:36:32;;;;;;;5.38;2.05;;;21.70;99.90;;;;;;5072102;28;20041;-55
2022/06/08 09:38:58;;;;;;;2.47;1.20;;;21.80;99.90;;;;;;5071583;28;20048;-54
2022/06/08 09:41:42;;;;;;;4.13;1.15;;;21.70;99.90;;;;;;5071540;28;20090;-55
2022/06/08 09:44:20;;;;;;;3.10;1.20;;;21.70;99.90;;;;;;5071703;28;20495;-55
2022/06/08 09:53:16;;;;;;;3.17;1.50;;;21.70;99.90;;;;;;5071984;28;20114;-54
2022/06/08 09:55:56;;;;;;;3.00;1.13;;;21.70;99.90;;;;;;5071953;28;20422;-54
2022/06/08 09:59:11;;;;;;;2.63;1.00;;;22.10;99.90;;;;;;5071878;28;20553;-55
2022/06/08 10:01:42;;;;;;;1.70;1.00;;;22.40;99.90;;;;;;5009801;28;20049;-55
2022/06/08 10:04:22;;;;;;;2.65;1.48;;;22.80;99.90;;;;;;5009657;28;20049;-56
2022/06/08 10:07:01;;;;;;;3.45;1.13;;;22.90;99.90;;;;;;5009919;28;20558;-55
2022/06/08 10:09:27;;;;;;;2.78;1.17;;;23.20;99.90;;;;;;5009699;28;20054;-55
2022/06/08 10:12:18;;;;;;;4.03;1.40;;;22.80;99.90;;;;;;5009761;28;20045;-55
2022/06/08 10:14:55;;;;;;;4.85;1.20;;;22.50;99.90;;;;;;5004324;28;20045;-55
2022/06/08 10:17:31;;;;;;;4.43;2.00;;;22.20;99.90;;;;;;5009764;28;20401;-56
2022/06/08 10:20:11;;;;;;;1.92;1.20;;;21.80;99.90;;;;;;5009595;28;20125;-55
2022/06/08 10:22:43;;;;;;;3.65;1.75;;;21.80;99.90;;;;;;5009585;28;20057;-56
2022/06/08 10:25:21;;;;;;;3.33;1.50;;;21.60;99.90;;;;;;5009497;28;20075;-55
2022/06/08 10:28:00;;;;;;;2.70;1.70;;;21.40;99.90;;;;;;5009551;28;20050;-54
2022/06/08 10:30:32;;;;;;;;;;;21.50;99.90;;;;;;5010278;28;20500;-55
2022/06/08 10:33:10;;;;;;;7.80;1.95;;;21.70;99.90;;;;;;5055920;28;19923;-55
2022/06/08 10:35:46;;;;;;;4.25;1.88;;;22.10;99.90;;;;;;5071718;28;20040;-55
2022/06/08 10:38:22;;;;;;;6.90;2.25;;;22.10;99.90;;;;;;5071562;28;20049;-54
2022/06/08 10:44:32;;;;;;;3.90;2.05;;;22.10;99.90;;;;;;5009872;28;20479;-55
2022/06/08 10:47:27;;;;;;;3.33;1.95;;;22.20;99.90;;;;;;5009482;28;20129;-55
2022/06/08 10:50:22;;;;;;;5.70;2.20;;;22.00;99.90;;;;;;4951914;28;20183;-55
2022/06/08 10:52:49;;;;;;;5.20;2.03;;;22.30;99.90;;;;;;4954760;28;20051;-54
2022/06/08 10:55:17;;;;;;;4.45;2.55;;;22.50;99.90;;;;;;4954595;28;20174;-55
2022/06/08 10:57:52;;;;;;;3.10;2.50;;;22.60;99.90;;;;;;4954476;28;20094;-54
2022/06/08 11:00:24;;;;;;;3.85;2.38;;;22.70;99.90;;;;;;4954469;28;20447;-55
2022/06/08 11:02:59;;;;;;;4.50;2.70;;;22.60;99.90;;;;;;4952562;28;20081;-55
2022/06/08 11:05:45;;;;;;;4.45;2.33;;;22.50;99.90;;;;;;4954491;28;20135;-54
2022/06/08 11:08:51;;;;;;;4.13;3.63;;;22.40;99.90;;;;;;4954268;28;20089;-55
2022/06/08 11:11:38;;;;;;;5.38;3.38;;;22.10;99.90;;;;;;4954453;28;20051;-54
2022/06/08 11:14:26;;;;;;;4.70;3.15;;;22.00;99.90;;;;;;4954191;28;20442;-54
2022/06/08 11:16:55;;;;;;;3.53;2.97;;;21.90;99.90;;;;;;4954090;28;20441;-53
2022/06/08 11:19:23;;;;;;;5.30;2.92;;;21.70;99.90;;;;;;4959658;28;20042;-55
2022/06/08 11:21:58;;;;;;;3.65;2.90;;;21.60;99.90;;;;;;4995662;28;20142;-55
2022/06/08 11:24:37;;;;;;;4.55;2.53;;;21.50;99.90;;;;;;4993027;28;20125;-55
2022/06/08 11:27:20;;;;;;;4.63;2.58;;;21.40;99.90;;;;;;5059776;28;20071;-56
2022/06/08 11:29:48;;;;;;;6.22;2.50;;;21.40;99.90;;;;;;5074110;28;20052;-55
2022/06/08 11:32:33;;;;;;;9.07;3.03;;;21.20;99.90;;;;;;5074139;28;20036;-55
2022/06/08 11:35:40;;;;;;;4.55;2.60;;;21.10;99.90;;;;;;5073926;28;20048;-55
2022/06/08 11:38:27;;;;;;;4.13;3.17;;;20.80;99.90;;;;;;5074177;28;20167;-54
2022/06/08 11:41:20;;;;;;;5.82;3.28;;;20.60;99.90;;;;;;5073397;28;20608;-55
2022/06/08 11:43:47;;;;;;;6.25;3.10;;;20.30;99.90;;;;;;4998137;28;20049;-55
2022/06/08 11:46:39;;;;;;;7.63;3.33;;;20.20;99.90;;;;;;5011964;28;20045;-55
2022/06/08 11:49:25;;;;;;;4.43;3.28;;;20.10;99.90;;;;;;4972649;28;20494;-55
2022/06/08 11:51:50;;;;;;;4.00;3.13;;;20.00;99.90;;;;;;4973203;28;20043;-55
2022/06/08 11:54:25;;;;;;;7.45;3.58;;;19.90;99.90;;;;;;4973062;28;20039;-55
2022/06/08 11:57:02;;;;;;;4.68;3.35;;;19.90;99.90;;;;;;4972797;28;20053;-55
2022/06/08 11:59:32;;;;;;;5.82;3.25;;;20.00;99.90;;;;;;4972715;28;20453;-54
2022/06/08 12:02:12;;;;;;;6.45;3.17;;;19.90;99.90;;;;;;4972383;28;20156;-55
2022/06/08 12:04:43;;;;;;;4.55;3.60;;;19.90;99.90;;;;;;4972399;28;20059;-55
2022/06/08 12:07:28;;;;;;;7.20;3.50;;;19.90;99.90;;;;;;4972815;28;20063;-55
2022/06/08 12:09:54;;;;;;;6.85;3.85;;;19.90;99.90;;;;;;4972552;28;20050;-55
2022/06/08 12:12:24;;;;;;;6.82;4.50;;;19.90;99.90;;;;;;4972627;28;20542;-55
2022/06/08 12:14:49;;;;;;;6.20;3.92;;;19.80;99.90;;;;;;4972708;28;20623;-55
2022/06/08 12:17:15;;;;;;;7.10;3.58;;;19.80;99.90;;;;;;4972490;28;20130;-55
2022/06/08 12:19:56;;;;;;;5.82;4.03;;;19.70;99.90;;;;;;4972673;28;20182;-55
2022/06/08 12:22:27;;;;;;;5.82;4.22;;;19.70;99.90;;;;;;4991807;28;20143;-55
2022/06/08 12:25:17;;;;;;;5.57;3.97;;;19.80;99.90;;;;;;4993906;28;20050;-55
2022/06/08 12:27:53;;;;;;;6.68;4.07;;;19.90;99.90;;;;;;5073009;28;20439;-57
2022/06/08 12:30:25;;;;;;;7.20;3.92;;;20.20;99.90;;;;;;5073125;28;20048;-54
2022/06/08 12:33:01;;;;;;;4.70;3.95;;;20.60;99.90;;;;;;5073048;28;20051;-54
2022/06/08 12:35:41;;;;;;;7.95;4.05;;;20.60;99.90;;;;;;5059394;28;20043;-53
2022/06/08 12:38:13;;;;;;;8.10;4.15;;;20.50;99.90;;;;;;5072778;28;20067;-54
2022/06/08 12:40:39;;;;;;;13.75;5.95;;;20.40;99.90;;;;;;5072724;28;20063;-55
2022/06/08 12:43:09;;;;;;;8.30;4.57;;;20.20;99.90;;;;;;5073094;28;20045;-55
2022/06/08 12:45:46;;;;;;;8.95;5.10;;;19.90;99.90;;;;;;5072151;28;20410;-55
2022/06/08 12:48:26;;;;;;;8.18;4.32;;;19.60;99.90;;;;;;5054360;28;20495;-53
2022/06/08 12:50:53;;;;;;;8.82;2.75;;;19.30;99.90;;;;;;5072380;28;20063;-56
2022/06/08 12:53:20;;;;;;;5.78;2.70;;;19.10;99.90;;;;;;5073012;28;20052;-55
2022/06/08 12:55:46;;;;;;;3.90;1.50;;;18.80;99.90;;;;;;5072154;28;20045;-55
2022/06/08 12:58:12;;;;;;;5.43;1.30;;;18.70;99.90;;;;;;5072219;28;20098;-55
2022/06/08 13:00:44;;;;;;;4.43;1.30;;;18.40;99.90;;;;;;5071964;28;20055;-54
2022/06/08 13:03:24;;;;;;;3.60;1.60;;;18.30;99.90;;;;;;5072166;28;20490;-55
2022/06/08 13:05:52;;;;;;;2.47;0.98;;;18.30;99.90;;;;;;5071921;28;20127;-55
2022/06/08 13:08:22;;;;;;;4.28;1.40;;;18.20;99.90;;;;;;5072372;28;20079;-55
2022/06/08 13:10:54;;;;;;;3.15;1.30;;;18.20;99.90;;;;;;5053441;28;20094;-55
2022/06/08 13:13:25;;;;;;;3.35;1.63;;;18.10;99.90;;;;;;5071347;28;20505;-55